sensor_id;sensor_type;location;lat;lon;timestamp;pressure;altitude;pressure_sealevel;temperature
73894;BMP280;62699;50.534;12.784;2023-04-08T00:04:20;96518.47;;;4.45
73894;BMP280;62699;50.534;12.784;2023-04-08T00:09:20;96518.00;;;4.37
73894;BMP280;62699;50.534;12.784;2023-04-08T00:14:21;96515.63;;;4.30
73894;BMP280;62699;50.534;12.784;2023-04-08T00:19:21;96511.00;;;4.21
73894;BMP280;62699;50.534;12.784;2023-04-08T00:24:22;96511.88;;;4.09
73894;BMP280;62699;50.534;12.784;2023-04-08T00:29:22;96509.78;;;3.95
73894;BMP280;62699;50.534;12.784;2023-04-08T00:34:24;96515.38;;;3.97
73894;BMP280;62699;50.534;12.784;2023-04-08T00:39:25;96518.56;;;3.74
73894;BMP280;62699;50.534;12.784;2023-04-08T00:44:25;96526.09;;;3.66
73894;BMP280;62699;50.534;12.784;2023-04-08T00:49:25;96524.13;;;3.58
73894;BMP280;62699;50.534;12.784;2023-04-08T00:54:26;96526.22;;;3.63
73894;BMP280;62699;50.534;12.784;2023-04-08T00:59:28;96525.59;;;3.59
73894;BMP280;62699;50.534;12.784;2023-04-08T01:09:38;96529.44;;;3.58
73894;BMP280;62699;50.534;12.784;2023-04-08T01:14:41;96531.91;;;3.43
73894;BMP280;62699;50.534;12.784;2023-04-08T01:19:44;96531.09;;;3.33
73894;BMP280;62699;50.534;12.784;2023-04-08T01:24:49;96536.06;;;3.22
73894;BMP280;62699;50.534;12.784;2023-04-08T01:29:58;96530.06;;;3.09
73894;BMP280;62699;50.534;12.784;2023-04-08T01:35:01;96534.84;;;3.14
73894;BMP280;62699;50.534;12.784;2023-04-08T01:40:02;96538.66;;;3.13
73894;BMP280;62699;50.534;12.784;2023-04-08T01:45:04;96525.81;;;3.12
73894;BMP280;62699;50.534;12.784;2023-04-08T01:50:06;96528.16;;;3.10
73894;BMP280;62699;50.534;12.784;2023-04-08T01:55:07;96527.34;;;3.00
73894;BMP280;62699;50.534;12.784;2023-04-08T02:00:08;96527.66;;;3.02
73894;BMP280;62699;50.534;12.784;2023-04-08T02:05:10;96527.00;;;2.98
73894;BMP280;62699;50.534;12.784;2023-04-08T02:10:10;96525.84;;;2.99
73894;BMP280;62699;50.534;12.784;2023-04-08T02:15:11;96529.56;;;3.01
73894;BMP280;62699;50.534;12.784;2023-04-08T02:20:23;96530.00;;;3.00
73894;BMP280;62699;50.534;12.784;2023-04-08T02:25:28;96536.16;;;2.97
73894;BMP280;62699;50.534;12.784;2023-04-08T02:30:30;96534.44;;;3.03
73894;BMP280;62699;50.534;12.784;2023-04-08T02:35:31;96528.81;;;3.01
73894;BMP280;62699;50.534;12.784;2023-04-08T02:40:34;96542.22;;;2.97
73894;BMP280;62699;50.534;12.784;2023-04-08T02:45:41;96534.44;;;3.03
73894;BMP280;62699;50.534;12.784;2023-04-08T02:50:42;96530.31;;;3.02
73894;BMP280;62699;50.534;12.784;2023-04-08T02:55:43;96535.94;;;3.04
73894;BMP280;62699;50.534;12.784;2023-04-08T03:00:44;96535.63;;;3.02
73894;BMP280;62699;50.534;12.784;2023-04-08T03:05:44;96539.47;;;3.01
73894;BMP280;62699;50.534;12.784;2023-04-08T03:10:44;96537.03;;;2.94
73894;BMP280;62699;50.534;12.784;2023-04-08T03:15:45;96543.72;;;2.98
73894;BMP280;62699;50.534;12.784;2023-04-08T03:20:45;96539.69;;;2.94
73894;BMP280;62699;50.534;12.784;2023-04-08T03:25:45;96536.69;;;3.04
73894;BMP280;62699;50.534;12.784;2023-04-08T03:30:46;96542.66;;;2.96
73894;BMP280;62699;50.534;12.784;2023-04-08T03:35:46;96540.25;;;2.89
73894;BMP280;62699;50.534;12.784;2023-04-08T03:40:46;96541.06;;;2.98
73894;BMP280;62699;50.534;12.784;2023-04-08T03:45:46;96543.25;;;2.91
73894;BMP280;62699;50.534;12.784;2023-04-08T03:50:47;96543.25;;;2.91
73894;BMP280;62699;50.534;12.784;2023-04-08T03:55:49;96556.06;;;3.05
73894;BMP280;62699;50.534;12.784;2023-04-08T04:00:52;96551.03;;;3.07
73894;BMP280;62699;50.534;12.784;2023-04-08T04:05:53;96561.06;;;3.03
73894;BMP280;62699;50.534;12.784;2023-04-08T04:10:53;96557.09;;;3.08
73894;BMP280;62699;50.534;12.784;2023-04-08T04:15:53;96567.63;;;3.11
73894;BMP280;62699;50.534;12.784;2023-04-08T04:20:54;96576.13;;;3.06
73894;BMP280;62699;50.534;12.784;2023-04-08T04:25:54;96575.94;;;3.00
73894;BMP280;62699;50.534;12.784;2023-04-08T04:30:54;96576.25;;;3.02
73894;BMP280;62699;50.534;12.784;2023-04-08T04:35:54;96586.91;;;3.02
73894;BMP280;62699;50.534;12.784;2023-04-08T04:40:55;96583.25;;;3.09
73894;BMP280;62699;50.534;12.784;2023-04-08T04:45:55;96585.91;;;3.09
73894;BMP280;62699;50.534;12.784;2023-04-08T04:50:58;96586.56;;;3.13
73894;BMP280;62699;50.534;12.784;2023-04-08T04:56:00;96585.06;;;3.12
73894;BMP280;62699;50.534;12.784;2023-04-08T05:01:00;96588.16;;;3.11
73894;BMP280;62699;50.534;12.784;2023-04-08T05:06:01;96592.31;;;2.99
73894;BMP280;62699;50.534;12.784;2023-04-08T05:11:02;96584.03;;;2.97
73894;BMP280;62699;50.534;12.784;2023-04-08T05:16:03;96592.09;;;3.06
73894;BMP280;62699;50.534;12.784;2023-04-08T05:21:03;96601.78;;;3.00
73894;BMP280;62699;50.534;12.784;2023-04-08T05:26:06;96597.53;;;3.02
73894;BMP280;62699;50.534;12.784;2023-04-08T05:31:07;96603.38;;;3.10
73894;BMP280;62699;50.534;12.784;2023-04-08T05:36:07;96607.09;;;3.13
73894;BMP280;62699;50.534;12.784;2023-04-08T05:41:07;96613.91;;;3.14
73894;BMP280;62699;50.534;12.784;2023-04-08T05:46:09;96617.06;;;3.21
73894;BMP280;62699;50.534;12.784;2023-04-08T05:51:14;96622.81;;;3.20
73894;BMP280;62699;50.534;12.784;2023-04-08T05:56:17;96620.56;;;3.18
73894;BMP280;62699;50.534;12.784;2023-04-08T06:01:17;96618.34;;;3.17
73894;BMP280;62699;50.534;12.784;2023-04-08T06:06:19;96614.75;;;3.11
73894;BMP280;62699;50.534;12.784;2023-04-08T06:11:21;96617.94;;;3.05
73894;BMP280;62699;50.534;12.784;2023-04-08T06:16:23;96623.56;;;3.08
73894;BMP280;62699;50.534;12.784;2023-04-08T06:21:23;96637.84;;;3.14
73894;BMP280;62699;50.534;12.784;2023-04-08T06:26:23;96636.91;;;3.29
73894;BMP280;62699;50.534;12.784;2023-04-08T06:31:25;96633.91;;;3.27
73894;BMP280;62699;50.534;12.784;2023-04-08T06:36:26;96640.19;;;3.33
73894;BMP280;62699;50.534;12.784;2023-04-08T06:41:27;96646.22;;;3.47
73894;BMP280;62699;50.534;12.784;2023-04-08T06:46:27;96647.75;;;3.57
73894;BMP280;62699;50.534;12.784;2023-04-08T06:51:27;96657.00;;;3.65
73894;BMP280;62699;50.534;12.784;2023-04-08T06:56:28;96658.06;;;3.76
73894;BMP280;62699;50.534;12.784;2023-04-08T07:01:28;96662.09;;;3.81
73894;BMP280;62699;50.534;12.784;2023-04-08T07:06:28;96669.66;;;3.82
73894;BMP280;62699;50.534;12.784;2023-04-08T07:11:28;96670.94;;;3.78
73894;BMP280;62699;50.534;12.784;2023-04-08T07:16:29;96674.34;;;3.78
73894;BMP280;62699;50.534;12.784;2023-04-08T07:21:29;96673.28;;;3.98
73894;BMP280;62699;50.534;12.784;2023-04-08T07:26:30;96677.00;;;4.00
73894;BMP280;62699;50.534;12.784;2023-04-08T07:31:32;96671.41;;;4.07
73894;BMP280;62699;50.534;12.784;2023-04-08T07:36:33;96673.88;;;4.23
73894;BMP280;62699;50.534;12.784;2023-04-08T07:41:33;96667.59;;;4.48
73894;BMP280;62699;50.534;12.784;2023-04-08T07:46:36;96674.88;;;4.57
73894;BMP280;62699;50.534;12.784;2023-04-08T07:51:37;96674.03;;;4.78
73894;BMP280;62699;50.534;12.784;2023-04-08T07:56:38;96688.84;;;4.79
73894;BMP280;62699;50.534;12.784;2023-04-08T08:01:39;96687.09;;;4.76
73894;BMP280;62699;50.534;12.784;2023-04-08T08:06:40;96687.22;;;4.82
73894;BMP280;62699;50.534;12.784;2023-04-08T08:11:41;96685.94;;;4.86
73894;BMP280;62699;50.534;12.784;2023-04-08T08:16:42;96695.00;;;4.98
73894;BMP280;62699;50.534;12.784;2023-04-08T08:21:43;96699.44;;;5.01
73894;BMP280;62699;50.534;12.784;2023-04-08T08:26:43;96707.13;;;4.90
73894;BMP280;62699;50.534;12.784;2023-04-08T08:31:46;96709.03;;;4.98
73894;BMP280;62699;50.534;12.784;2023-04-08T08:36:47;96708.78;;;5.06
73894;BMP280;62699;50.534;12.784;2023-04-08T08:41:47;96721.69;;;5.16
73894;BMP280;62699;50.534;12.784;2023-04-08T08:46:48;96729.84;;;5.31
73894;BMP280;62699;50.534;12.784;2023-04-08T08:51:49;96734.59;;;5.63
73894;BMP280;62699;50.534;12.784;2023-04-08T08:56:50;96745.00;;;5.70
73894;BMP280;62699;50.534;12.784;2023-04-08T09:01:50;96745.28;;;5.72
73894;BMP280;62699;50.534;12.784;2023-04-08T09:07:10;96744.09;;;5.73
73894;BMP280;62699;50.534;12.784;2023-04-08T09:12:10;96750.47;;;5.85
73894;BMP280;62699;50.534;12.784;2023-04-08T09:17:12;96761.41;;;6.05
73894;BMP280;62699;50.534;12.784;2023-04-08T09:22:13;96764.25;;;6.02
73894;BMP280;62699;50.534;12.784;2023-04-08T09:27:14;96768.13;;;5.92
73894;BMP280;62699;50.534;12.784;2023-04-08T09:32:15;96773.16;;;6.08
73894;BMP280;62699;50.534;12.784;2023-04-08T09:37:17;96773.69;;;6.30
73894;BMP280;62699;50.534;12.784;2023-04-08T09:42:19;96774.91;;;6.20
73894;BMP280;62699;50.534;12.784;2023-04-08T09:47:24;96772.50;;;6.40
73894;BMP280;62699;50.534;12.784;2023-04-08T09:52:43;96772.00;;;7.07
73894;BMP280;62699;50.534;12.784;2023-04-08T10:03:39;96774.47;;;7.20
73894;BMP280;62699;50.534;12.784;2023-04-08T10:08:44;96769.84;;;6.97
73894;BMP280;62699;50.534;12.784;2023-04-08T10:13:45;96772.34;;;6.77
73894;BMP280;62699;50.534;12.784;2023-04-08T10:18:47;96782.16;;;7.03
73894;BMP280;62699;50.534;12.784;2023-04-08T10:23:54;96784.31;;;7.38
73894;BMP280;62699;50.534;12.784;2023-04-08T10:28:55;96777.81;;;7.54
73894;BMP280;62699;50.534;12.784;2023-04-08T10:34:17;96781.88;;;7.64
73894;BMP280;62699;50.534;12.784;2023-04-08T10:39:18;96783.22;;;8.12
73894;BMP280;62699;50.534;12.784;2023-04-08T10:44:21;96787.38;;;8.43
73894;BMP280;62699;50.534;12.784;2023-04-08T10:49:31;96784.09;;;8.68
73894;BMP280;62699;50.534;12.784;2023-04-08T10:54:32;96775.59;;;8.55
73894;BMP280;62699;50.534;12.784;2023-04-08T10:59:33;96786.28;;;8.05
73894;BMP280;62699;50.534;12.784;2023-04-08T11:04:40;96802.69;;;7.69
73894;BMP280;62699;50.534;12.784;2023-04-08T11:09:41;96792.13;;;7.50
73894;BMP280;62699;50.534;12.784;2023-04-08T11:14:42;96795.50;;;8.04
73894;BMP280;62699;50.534;12.784;2023-04-08T11:19:43;96803.38;;;7.93
73894;BMP280;62699;50.534;12.784;2023-04-08T11:24:43;96812.00;;;7.97
73894;BMP280;62699;50.534;12.784;2023-04-08T11:29:44;96804.66;;;8.56
73894;BMP280;62699;50.534;12.784;2023-04-08T11:34:45;96809.28;;;8.91
73894;BMP280;62699;50.534;12.784;2023-04-08T11:39:46;96813.28;;;8.80
73894;BMP280;62699;50.534;12.784;2023-04-08T11:44:46;96813.06;;;8.64
73894;BMP280;62699;50.534;12.784;2023-04-08T11:49:47;96808.66;;;8.81
73894;BMP280;62699;50.534;12.784;2023-04-08T11:54:47;96802.88;;;9.23
73894;BMP280;62699;50.534;12.784;2023-04-08T11:59:47;96802.19;;;9.28
73894;BMP280;62699;50.534;12.784;2023-04-08T12:04:48;96811.13;;;8.99
73894;BMP280;62699;50.534;12.784;2023-04-08T12:09:48;96812.41;;;8.69
73894;BMP280;62699;50.534;12.784;2023-04-08T12:14:49;96812.00;;;8.76
73894;BMP280;62699;50.534;12.784;2023-04-08T12:19:49;96826.88;;;8.92
73894;BMP280;62699;50.534;12.784;2023-04-08T12:24:50;96815.16;;;8.89
73894;BMP280;62699;50.534;12.784;2023-04-08T12:29:50;96824.28;;;8.48
73894;BMP280;62699;50.534;12.784;2023-04-08T12:34:52;96834.47;;;8.44
73894;BMP280;62699;50.534;12.784;2023-04-08T12:39:57;96837.31;;;8.25
73894;BMP280;62699;50.534;12.784;2023-04-08T12:44:57;96845.38;;;8.11
73894;BMP280;62699;50.534;12.784;2023-04-08T12:49:58;96845.16;;;7.85
73894;BMP280;62699;50.534;12.784;2023-04-08T12:55:00;96841.81;;;7.90
73894;BMP280;62699;50.534;12.784;2023-04-08T13:00:00;96845.28;;;7.67
73894;BMP280;62699;50.534;12.784;2023-04-08T13:05:00;96849.22;;;7.95
73894;BMP280;62699;50.534;12.784;2023-04-08T13:10:01;96837.94;;;7.91
73894;BMP280;62699;50.534;12.784;2023-04-08T13:15:03;96840.19;;;8.22
73894;BMP280;62699;50.534;12.784;2023-04-08T13:20:04;96843.91;;;8.54
73894;BMP280;62699;50.534;12.784;2023-04-08T13:25:05;96840.72;;;8.55
73894;BMP280;62699;50.534;12.784;2023-04-08T13:30:06;96854.09;;;8.50
73894;BMP280;62699;50.534;12.784;2023-04-08T13:35:07;96852.13;;;8.35
73894;BMP280;62699;50.534;12.784;2023-04-08T13:40:08;96851.56;;;8.31
73894;BMP280;62699;50.534;12.784;2023-04-08T13:45:09;96845.75;;;8.48
73894;BMP280;62699;50.534;12.784;2023-04-08T13:50:09;96851.47;;;8.41
73894;BMP280;62699;50.534;12.784;2023-04-08T13:55:09;96845.75;;;8.18
73894;BMP280;62699;50.534;12.784;2023-04-08T14:00:10;96849.25;;;8.10
73894;BMP280;62699;50.534;12.784;2023-04-08T14:05:11;96857.22;;;8.19
73894;BMP280;62699;50.534;12.784;2023-04-08T14:10:11;96861.25;;;8.14
73894;BMP280;62699;50.534;12.784;2023-04-08T14:15:15;96860.19;;;8.35
73894;BMP280;62699;50.534;12.784;2023-04-08T14:20:15;96855.19;;;8.58
73894;BMP280;62699;50.534;12.784;2023-04-08T14:25:15;96857.03;;;8.52
73894;BMP280;62699;50.534;12.784;2023-04-08T14:30:16;96856.59;;;8.39
73894;BMP280;62699;50.534;12.784;2023-04-08T14:35:18;96856.28;;;8.36
73894;BMP280;62699;50.534;12.784;2023-04-08T14:40:19;96860.81;;;8.01
73894;BMP280;62699;50.534;12.784;2023-04-08T14:45:20;96867.00;;;7.69
73894;BMP280;62699;50.534;12.784;2023-04-08T14:50:22;96864.22;;;7.63
73894;BMP280;62699;50.534;12.784;2023-04-08T14:55:23;96865.69;;;7.64
73894;BMP280;62699;50.534;12.784;2023-04-08T15:00:24;96849.72;;;7.70
73894;BMP280;62699;50.534;12.784;2023-04-08T15:05:26;96856.84;;;7.73
73894;BMP280;62699;50.534;12.784;2023-04-08T15:10:28;96866.56;;;7.70
73894;BMP280;62699;50.534;12.784;2023-04-08T15:15:29;96863.06;;;7.79
73894;BMP280;62699;50.534;12.784;2023-04-08T15:20:30;96864.34;;;7.83
73894;BMP280;62699;50.534;12.784;2023-04-08T15:25:30;96871.72;;;7.74
73894;BMP280;62699;50.534;12.784;2023-04-08T15:30:31;96876.25;;;7.68
73894;BMP280;62699;50.534;12.784;2023-04-08T15:35:36;96875.59;;;7.73
73894;BMP280;62699;50.534;12.784;2023-04-08T15:40:37;96882.28;;;7.77
73894;BMP280;62699;50.534;12.784;2023-04-08T15:45:41;96884.88;;;7.72
73894;BMP280;62699;50.534;12.784;2023-04-08T15:50:43;96890.09;;;7.66
73894;BMP280;62699;50.534;12.784;2023-04-08T15:55:43;96890.59;;;7.56
73894;BMP280;62699;50.534;12.784;2023-04-08T16:00:43;96896.38;;;7.39
73894;BMP280;62699;50.534;12.784;2023-04-08T16:05:44;96894.47;;;7.31
73894;BMP280;62699;50.534;12.784;2023-04-08T16:10:44;96897.03;;;7.25
73894;BMP280;62699;50.534;12.784;2023-04-08T16:15:44;96912.53;;;7.12
73894;BMP280;62699;50.534;12.784;2023-04-08T16:20:45;96909.16;;;7.02
73894;BMP280;62699;50.534;12.784;2023-04-08T16:25:45;96914.88;;;6.86
73894;BMP280;62699;50.534;12.784;2023-04-08T16:30:46;96918.59;;;6.89
73894;BMP280;62699;50.534;12.784;2023-04-08T16:35:46;96925.13;;;6.88
73894;BMP280;62699;50.534;12.784;2023-04-08T16:40:48;96926.66;;;6.80
73894;BMP280;62699;50.534;12.784;2023-04-08T16:45:50;96935.28;;;6.75
73894;BMP280;62699;50.534;12.784;2023-04-08T16:50:53;96936.34;;;6.68
73894;BMP280;62699;50.534;12.784;2023-04-08T16:55:56;96936.78;;;6.57
73894;BMP280;62699;50.534;12.784;2023-04-08T17:00:56;96940.50;;;6.60
73894;BMP280;62699;50.534;12.784;2023-04-08T17:06:11;96950.75;;;6.61
73894;BMP280;62699;50.534;12.784;2023-04-08T17:11:14;96952.84;;;6.57
73894;BMP280;62699;50.534;12.784;2023-04-08T17:16:16;96966.22;;;6.57
73894;BMP280;62699;50.534;12.784;2023-04-08T17:21:16;96970.81;;;6.57
73894;BMP280;62699;50.534;12.784;2023-04-08T17:26:17;96979.16;;;6.50
73894;BMP280;62699;50.534;12.784;2023-04-08T17:31:17;96981.09;;;6.49
73894;BMP280;62699;50.534;12.784;2023-04-08T17:36:17;96986.59;;;6.37
73894;BMP280;62699;50.534;12.784;2023-04-08T17:41:18;96988.22;;;6.34
73894;BMP280;62699;50.534;12.784;2023-04-08T17:46:18;96995.16;;;6.32
73894;BMP280;62699;50.534;12.784;2023-04-08T17:51:18;97003.06;;;6.26
73894;BMP280;62699;50.534;12.784;2023-04-08T17:56:19;97003.63;;;6.21
73894;BMP280;62699;50.534;12.784;2023-04-08T18:01:20;97015.22;;;6.18
73894;BMP280;62699;50.534;12.784;2023-04-08T18:06:21;97013.75;;;6.17
73894;BMP280;62699;50.534;12.784;2023-04-08T18:11:21;97026.50;;;6.13
73894;BMP280;62699;50.534;12.784;2023-04-08T18:16:26;97026.34;;;6.07
73894;BMP280;62699;50.534;12.784;2023-04-08T18:21:28;97038.22;;;6.06
73894;BMP280;62699;50.534;12.784;2023-04-08T18:26:28;97035.38;;;6.01
73894;BMP280;62699;50.534;12.784;2023-04-08T18:31:28;97042.81;;;5.97
73894;BMP280;62699;50.534;12.784;2023-04-08T18:36:28;97048.16;;;5.97
73894;BMP280;62699;50.534;12.784;2023-04-08T18:41:29;97050.63;;;5.91
73894;BMP280;62699;50.534;12.784;2023-04-08T18:46:29;97057.34;;;5.87
73894;BMP280;62699;50.534;12.784;2023-04-08T18:51:30;97064.28;;;5.84
73894;BMP280;62699;50.534;12.784;2023-04-08T18:56:30;97069.63;;;5.84
73894;BMP280;62699;50.534;12.784;2023-04-08T19:01:33;97066.53;;;5.86
73894;BMP280;62699;50.534;12.784;2023-04-08T19:06:35;97069.22;;;5.86
73894;BMP280;62699;50.534;12.784;2023-04-08T19:11:36;97074.84;;;5.88
73894;BMP280;62699;50.534;12.784;2023-04-08T19:16:36;97077.81;;;5.90
73894;BMP280;62699;50.534;12.784;2023-04-08T19:21:37;97078.72;;;5.87
73894;BMP280;62699;50.534;12.784;2023-04-08T19:26:37;97080.31;;;5.84
73894;BMP280;62699;50.534;12.784;2023-04-08T19:31:37;97076.59;;;5.81
73894;BMP280;62699;50.534;12.784;2023-04-08T19:36:38;97082.81;;;5.78
73894;BMP280;62699;50.534;12.784;2023-04-08T19:41:38;97082.81;;;5.78
73894;BMP280;62699;50.534;12.784;2023-04-08T19:46:38;97076.84;;;5.74
73894;BMP280;62699;50.534;12.784;2023-04-08T19:51:40;97083.38;;;5.73
73894;BMP280;62699;50.534;12.784;2023-04-08T19:56:40;97090.63;;;5.73
73894;BMP280;62699;50.534;12.784;2023-04-08T20:01:41;97084.72;;;5.69
73894;BMP280;62699;50.534;12.784;2023-04-08T20:06:41;97080.66;;;5.64
73894;BMP280;62699;50.534;12.784;2023-04-08T20:11:41;97087.19;;;5.63
73894;BMP280;62699;50.534;12.784;2023-04-08T20:16:42;97081.53;;;5.61
73894;BMP280;62699;50.534;12.784;2023-04-08T20:21:42;97079.16;;;5.54
73894;BMP280;62699;50.534;12.784;2023-04-08T20:26:43;97078.50;;;5.50
73894;BMP280;62699;50.534;12.784;2023-04-08T20:31:44;97084.00;;;5.47
73894;BMP280;62699;50.534;12.784;2023-04-08T20:36:45;97078.00;;;5.42
73894;BMP280;62699;50.534;12.784;2023-04-08T20:41:46;97072.53;;;5.37
73894;BMP280;62699;50.534;12.784;2023-04-08T20:46:47;97076.91;;;5.31
73894;BMP280;62699;50.534;12.784;2023-04-08T20:51:48;97071.84;;;5.24
73894;BMP280;62699;50.534;12.784;2023-04-08T20:56:48;97072.94;;;5.14
73894;BMP280;62699;50.534;12.784;2023-04-08T21:01:51;97084.44;;;5.01
73894;BMP280;62699;50.534;12.784;2023-04-08T21:06:54;97089.69;;;4.92
73894;BMP280;62699;50.534;12.784;2023-04-08T21:11:54;97091.44;;;4.86
73894;BMP280;62699;50.534;12.784;2023-04-08T21:16:56;97094.94;;;4.83
73894;BMP280;62699;50.534;12.784;2023-04-08T21:21:57;97090.88;;;4.79
73894;BMP280;62699;50.534;12.784;2023-04-08T21:26:57;97090.28;;;4.75
73894;BMP280;62699;50.534;12.784;2023-04-08T21:31:57;97083.91;;;4.72
73894;BMP280;62699;50.534;12.784;2023-04-08T21:36:59;97102.78;;;4.65
73894;BMP280;62699;50.534;12.784;2023-04-08T21:42:01;97100.03;;;4.56
73894;BMP280;62699;50.534;12.784;2023-04-08T21:47:01;97095.97;;;4.39
73894;BMP280;62699;50.534;12.784;2023-04-08T21:52:02;97089.63;;;4.23
73894;BMP280;62699;50.534;12.784;2023-04-08T21:57:04;97081.94;;;4.00
73894;BMP280;62699;50.534;12.784;2023-04-08T22:02:04;97096.22;;;3.81
73894;BMP280;62699;50.534;12.784;2023-04-08T22:07:05;97090.75;;;3.59
73894;BMP280;62699;50.534;12.784;2023-04-08T22:12:08;97079.00;;;3.44
73894;BMP280;62699;50.534;12.784;2023-04-08T22:17:08;97080.19;;;3.27
73894;BMP280;62699;50.534;12.784;2023-04-08T22:22:08;97074.53;;;3.12
73894;BMP280;62699;50.534;12.784;2023-04-08T22:27:09;97074.25;;;2.94
73894;BMP280;62699;50.534;12.784;2023-04-08T22:32:10;97081.59;;;2.74
73894;BMP280;62699;50.534;12.784;2023-04-08T22:37:10;97080.44;;;2.58
73894;BMP280;62699;50.534;12.784;2023-04-08T22:42:11;97072.47;;;2.42
73894;BMP280;62699;50.534;12.784;2023-04-08T22:47:12;97084.94;;;2.29
73894;BMP280;62699;50.534;12.784;2023-04-08T22:52:12;97092.97;;;2.25
73894;BMP280;62699;50.534;12.784;2023-04-08T22:57:12;97106.50;;;2.31
73894;BMP280;62699;50.534;12.784;2023-04-08T23:02:12;97101.69;;;2.26
73894;BMP280;62699;50.534;12.784;2023-04-08T23:07:13;97106.97;;;2.10
73894;BMP280;62699;50.534;12.784;2023-04-08T23:12:13;97119.56;;;2.06
73894;BMP280;62699;50.534;12.784;2023-04-08T23:17:13;97117.09;;;2.15
73894;BMP280;62699;50.534;12.784;2023-04-08T23:22:13;97112.63;;;2.12
73894;BMP280;62699;50.534;12.784;2023-04-08T23:27:14;97117.44;;;2.17
73894;BMP280;62699;50.534;12.784;2023-04-08T23:32:14;97122.13;;;2.29
73894;BMP280;62699;50.534;12.784;2023-04-08T23:37:15;97124.78;;;2.45
73894;BMP280;62699;50.534;12.784;2023-04-08T23:42:18;97115.41;;;2.57
73894;BMP280;62699;50.534;12.784;2023-04-08T23:47:18;97117.91;;;2.64
73894;BMP280;62699;50.534;12.784;2023-04-08T23:52:18;97109.91;;;2.64
73894;BMP280;62699;50.534;12.784;2023-04-08T23:57:18;97114.19;;;2.61
